createdAt,value
2018-08-16T00:01:02.113Z,34.6
2018-08-16T00:02:04.256Z,34.6
2018-08-16T00:03:06.711Z,34.5
2018-08-16T00:04:08.887Z,34.6
2018-08-16T00:05:11.337Z,34.7
2018-08-16T00:06:13.786Z,34.6
2018-08-16T00:07:16.246Z,34.6
2018-08-16T00:08:18.690Z,34.5
2018-08-16T00:09:21.144Z,34.6
2018-08-16T00:10:23.576Z,34.6
2018-08-16T00:11:25.749Z,34.7
2018-08-16T00:12:27.933Z,34.5
2018-08-16T00:13:30.375Z,34.7
2018-08-16T00:14:32.824Z,34.6
2018-08-16T00:15:35.294Z,34.5
2018-08-16T00:16:36.891Z,34.6
2018-08-16T00:17:39.049Z,34.8
2018-08-16T00:18:41.212Z,34.6
2018-08-16T00:19:43.365Z,34.8
2018-08-16T00:20:45.506Z,34.7
2018-08-16T00:21:47.947Z,34.7
2018-08-16T00:22:50.414Z,34.7
2018-08-16T00:23:52.565Z,34.7
2018-08-16T00:24:54.492Z,34.7
2018-08-16T00:25:56.668Z,34.8
2018-08-16T00:26:58.836Z,34.7
2018-08-16T00:28:01.282Z,34.7
2018-08-16T00:29:03.462Z,34.6
2018-08-16T00:30:05.903Z,34.8
2018-08-16T00:31:08.072Z,34.6
2018-08-16T00:32:10.239Z,34.7
2018-08-16T00:33:12.406Z,34.7
2018-08-16T00:34:14.587Z,34.6
2018-08-16T00:35:16.479Z,34.6
2018-08-16T00:36:18.662Z,34.6
2018-08-16T00:37:20.847Z,34.7
2018-08-16T00:38:22.727Z,34.7
2018-08-16T00:39:24.913Z,34.7
2018-08-16T00:40:27.357Z,34.5
2018-08-16T00:41:29.266Z,34.7
2018-08-16T00:42:31.448Z,34.8
2018-08-16T00:43:33.630Z,34.7
2018-08-16T00:44:35.798Z,34.7
2018-08-16T00:45:37.992Z,34.6
2018-08-16T00:46:39.924Z,34.7
2018-08-16T00:47:41.796Z,34.8
2018-08-16T00:48:43.721Z,34.7
2018-08-16T00:49:45.632Z,34.7
2018-08-16T00:50:47.791Z,34.9
2018-08-16T00:51:50.236Z,34.7
2018-08-16T00:52:52.448Z,34.7
2018-08-16T00:53:54.911Z,34.8
2018-08-16T00:54:57.363Z,34.7
2018-08-16T00:55:59.541Z,34.7
2018-08-16T00:57:01.986Z,34.7
2018-08-16T00:58:04.443Z,34.7
2018-08-16T00:59:06.894Z,34.7
2018-08-16T01:00:08.813Z,34.9
2018-08-16T01:01:11.000Z,34.8
2018-08-16T01:02:13.176Z,34.8
2018-08-16T01:03:15.331Z,34.9
2018-08-16T01:04:17.250Z,35
2018-08-16T01:05:19.711Z,34.7
2018-08-16T01:06:21.621Z,34.8
2018-08-16T01:07:24.057Z,34.8
2018-08-16T01:08:26.246Z,34.9
2018-08-16T01:09:28.129Z,34.9
2018-08-16T01:10:30.587Z,34.8
2018-08-16T01:11:32.770Z,34.8
2018-08-16T01:12:34.941Z,34.9
2018-08-16T01:13:37.121Z,34.8
2018-08-16T01:14:39.560Z,34.8
2018-08-16T01:15:41.706Z,34.8
2018-08-16T01:16:44.168Z,34.9
2018-08-16T01:17:46.328Z,34.9
2018-08-16T01:18:48.778Z,34.8
2018-08-16T01:19:51.217Z,34.9
2018-08-16T01:20:53.404Z,34.9
2018-08-16T01:21:55.847Z,34.8
2018-08-16T01:22:58.025Z,34.9
2018-08-16T01:23:59.930Z,34.9
2018-08-16T01:25:02.415Z,34.7
2018-08-16T01:26:04.576Z,34.8
2018-08-16T01:27:06.754Z,34.8
2018-08-16T01:28:08.930Z,34.8
2018-08-16T01:29:10.300Z,34.9
2018-08-16T01:30:12.738Z,34.7
2018-08-16T01:31:14.915Z,34.8
2018-08-16T01:32:17.105Z,34.9
2018-08-16T01:33:19.016Z,34.9
2018-08-16T01:34:21.197Z,34.9
2018-08-16T01:35:23.390Z,34.8
2018-08-16T01:36:25.557Z,34.8
2018-08-16T01:37:27.465Z,34.9
2018-08-16T01:38:29.056Z,34.9
2018-08-16T01:39:30.955Z,34.9
2018-08-16T01:40:33.406Z,34.9
2018-08-16T01:41:35.865Z,34.8
2018-08-16T01:42:37.506Z,34.8
2018-08-16T01:43:39.680Z,34.9
2018-08-16T01:44:42.136Z,34.8
2018-08-16T01:45:44.321Z,34.9
2018-08-16T01:46:46.487Z,34.9
2018-08-16T01:47:48.937Z,34.9
2018-08-16T01:48:50.840Z,34.8
2018-08-16T01:49:52.766Z,34.9
2018-08-16T01:50:55.227Z,35
2018-08-16T01:51:57.670Z,34.9
2018-08-16T01:53:00.113Z,34.9
2018-08-16T01:54:01.998Z,34.8
2018-08-16T01:55:04.148Z,34.9
2018-08-16T01:56:06.602Z,34.9
2018-08-16T01:57:09.044Z,34.9
2018-08-16T01:58:11.205Z,34.9
2018-08-16T01:59:13.382Z,34.9
2018-08-16T02:00:15.280Z,35
2018-08-16T02:01:17.459Z,34.9
2018-08-16T02:02:19.933Z,34.9
2018-08-16T02:03:21.835Z,34.8
2018-08-16T02:04:23.760Z,34.9
2018-08-16T02:05:25.917Z,34.9
2018-08-16T02:06:28.371Z,34.9
2018-08-16T02:07:30.527Z,34.9
2018-08-16T02:08:32.668Z,34.8
2018-08-16T02:09:34.266Z,34.9
2018-08-16T02:10:36.448Z,34.9
2018-08-16T02:11:38.895Z,35
2018-08-16T02:12:41.076Z,34.9
2018-08-16T02:13:42.976Z,34.9
2018-08-16T02:14:45.138Z,35
2018-08-16T02:15:46.767Z,34.9
2018-08-16T02:16:49.220Z,34.8
2018-08-16T02:17:51.668Z,34.9
2018-08-16T02:18:53.880Z,34.9
2018-08-16T02:19:56.060Z,34.9
2018-08-16T02:20:58.259Z,34.8
2018-08-16T02:22:00.708Z,35
2018-08-16T02:23:03.176Z,35
2018-08-16T02:24:05.052Z,34.9
2018-08-16T02:25:06.936Z,34.9
2018-08-16T02:26:09.105Z,34.8
2018-08-16T02:27:11.270Z,35
2018-08-16T02:28:13.438Z,35
2018-08-16T02:29:15.625Z,34.9
2018-08-16T02:30:18.069Z,34.8
2018-08-16T02:31:20.256Z,34.9
2018-08-16T02:32:22.430Z,34.9
2018-08-16T02:33:24.996Z,34.9
2018-08-16T02:34:27.328Z,34.9
2018-08-16T02:35:29.518Z,34.9
2018-08-16T02:36:31.413Z,34.8
2018-08-16T02:37:33.850Z,34.9
2018-08-16T02:38:35.767Z,34.8
2018-08-16T02:39:37.938Z,34.9
2018-08-16T02:40:40.075Z,34.9
2018-08-16T02:41:42.526Z,34.9
2018-08-16T02:42:44.975Z,34.9
2018-08-16T02:43:47.146Z,34.8
2018-08-16T02:44:49.035Z,34.8
2018-08-16T02:45:51.208Z,34.9
2018-08-16T02:46:53.655Z,35
2018-08-16T02:47:56.107Z,34.9
2018-08-16T02:48:58.545Z,34.9
2018-08-16T02:50:00.727Z,34.9
2018-08-16T02:51:02.908Z,35.1
2018-08-16T02:52:05.083Z,34.9
2018-08-16T02:53:06.979Z,34.9
2018-08-16T02:54:09.117Z,34.8
2018-08-16T02:55:11.581Z,34.9
2018-08-16T02:56:13.754Z,34.9
2018-08-16T02:57:16.203Z,34.9
2018-08-16T02:58:18.108Z,34.9
2018-08-16T02:59:20.289Z,34.9
2018-08-16T03:00:22.484Z,34.9
2018-08-16T03:01:24.946Z,34.8
2018-08-16T03:02:26.859Z,34.8
2018-08-16T03:03:29.292Z,34.9
2018-08-16T03:04:31.729Z,35
2018-08-16T03:05:33.606Z,34.9
2018-08-16T03:06:35.789Z,34.9
2018-08-16T03:07:37.945Z,34.9
2018-08-16T03:08:40.129Z,34.8
2018-08-16T03:09:42.296Z,34.9
2018-08-16T03:10:44.473Z,34.9
2018-08-16T03:11:46.115Z,34.8
2018-08-16T03:12:48.562Z,34.7
2018-08-16T03:13:50.442Z,34.8
2018-08-16T03:14:52.876Z,34.8
2018-08-16T03:15:55.045Z,34.9
2018-08-16T03:16:57.232Z,34.8
2018-08-16T03:17:59.676Z,34.9
2018-08-16T03:19:02.148Z,34.9
2018-08-16T03:20:03.758Z,34.6
2018-08-16T03:21:06.211Z,34.7
2018-08-16T03:22:07.837Z,34.7
2018-08-16T03:23:10.285Z,34.6
2018-08-16T03:24:12.465Z,34.6
2018-08-16T03:25:14.374Z,34.7
2018-08-16T03:26:16.280Z,34.7
2018-08-16T03:27:18.437Z,34.6
2018-08-16T03:28:20.618Z,34.5
2018-08-16T03:29:23.077Z,34.8
2018-08-16T03:30:25.517Z,34.6
2018-08-16T03:31:27.700Z,34.5
2018-08-16T03:32:29.873Z,34.6
2018-08-16T03:33:32.329Z,34.7
2018-08-16T03:34:34.224Z,34.6
2018-08-16T03:35:36.425Z,34.7
2018-08-16T03:36:38.873Z,34.7
2018-08-16T03:37:41.350Z,34.5
2018-08-16T03:38:43.805Z,34.6
2018-08-16T03:39:46.009Z,34.4
2018-08-16T03:40:47.926Z,34.5
2018-08-16T03:41:50.076Z,34.6
2018-08-16T03:42:52.262Z,34.6
2018-08-16T03:43:54.181Z,34.7
2018-08-16T03:44:56.349Z,34.5
2018-08-16T03:45:58.787Z,34.6
2018-08-16T03:47:01.258Z,34.5
2018-08-16T03:48:03.747Z,34.6
2018-08-16T03:49:06.246Z,34.6
2018-08-16T03:50:08.400Z,34.5
2018-08-16T03:51:10.286Z,34.6
2018-08-16T03:52:12.747Z,34.5
2018-08-16T03:53:15.195Z,34.6
2018-08-16T03:54:17.379Z,34.5
2018-08-16T03:55:19.548Z,34.6
2018-08-16T03:56:21.737Z,34.6
2018-08-16T03:57:24.185Z,34.6
2018-08-16T03:58:25.838Z,34.5
2018-08-16T03:59:28.017Z,34.5
2018-08-16T04:00:30.190Z,34.4
2018-08-16T04:01:32.635Z,34.4
2018-08-16T04:02:34.827Z,34.5
2018-08-16T04:03:37.279Z,34.4
2018-08-16T04:04:39.727Z,34.5
2018-08-16T04:05:42.180Z,34.4
2018-08-16T04:06:44.367Z,34.4
2018-08-16T04:07:45.972Z,34.6
2018-08-16T04:08:48.158Z,34.3
2018-08-16T04:09:50.301Z,34.5
2018-08-16T04:10:52.746Z,34.5
2018-08-16T04:11:55.197Z,34.5
2018-08-16T04:12:57.635Z,34.3
2018-08-16T04:14:00.103Z,34.3
2018-08-16T04:15:02.278Z,34.4
2018-08-16T04:16:04.732Z,34.4
2018-08-16T04:17:06.898Z,34.5
2018-08-16T04:18:09.064Z,34.4
2018-08-16T04:19:11.227Z,34.4
2018-08-16T04:20:13.130Z,34.4
2018-08-16T04:21:15.574Z,34.5
2018-08-16T04:22:18.017Z,34.5
2018-08-16T04:23:19.940Z,34.3
2018-08-16T04:24:22.111Z,34.4
2018-08-16T04:25:24.003Z,34.4
2018-08-16T04:26:26.168Z,34.4
2018-08-16T04:27:28.614Z,34.2
2018-08-16T04:28:30.769Z,34.4
2018-08-16T04:29:33.217Z,34.3
2018-08-16T04:30:35.667Z,34.4
2018-08-16T04:31:38.121Z,34.3
2018-08-16T04:32:40.298Z,34.4
2018-08-16T04:33:42.476Z,34.3
2018-08-16T04:34:44.932Z,34.3
2018-08-16T04:35:47.374Z,34.3
2018-08-16T04:36:49.529Z,34.4
2018-08-16T04:37:51.431Z,34.3
2018-08-16T04:38:53.319Z,34.2
2018-08-16T04:39:55.769Z,34.3
2018-08-16T04:40:58.215Z,34.4
2018-08-16T04:42:00.961Z,34.3
2018-08-16T04:43:03.590Z,34.3
2018-08-16T04:44:05.800Z,34.3
2018-08-16T04:45:07.986Z,34.2
2018-08-16T04:46:10.193Z,34.2
2018-08-16T04:47:12.638Z,34.2
2018-08-16T04:48:14.864Z,34.3
2018-08-16T04:49:16.478Z,34.3
2018-08-16T04:50:18.646Z,34.2
2018-08-16T04:51:21.093Z,34.3
2018-08-16T04:52:23.543Z,34.3
2018-08-16T04:53:25.717Z,34.3
2018-08-16T04:54:27.897Z,34.3
2018-08-16T04:55:30.064Z,34.2
2018-08-16T04:56:32.511Z,34.2
2018-08-16T04:57:34.958Z,34.2
2018-08-16T04:58:37.136Z,34.3
2018-08-16T04:59:39.313Z,34.2
2018-08-16T05:00:41.750Z,34.3
2018-08-16T05:01:43.925Z,34.2
2018-08-16T05:02:45.791Z,34.2
2018-08-16T05:03:47.947Z,34.3
2018-08-16T05:04:50.119Z,34.2
2018-08-16T05:05:52.566Z,34.1
2018-08-16T05:06:54.734Z,34.4
2018-08-16T05:07:56.638Z,34.2
2018-08-16T05:08:59.093Z,34.2
2018-08-16T05:10:01.265Z,34.2
2018-08-16T05:11:03.539Z,34.1
2018-08-16T05:12:05.822Z,34.2
2018-08-16T05:13:07.713Z,34.2
2018-08-16T05:14:09.361Z,34.2
2018-08-16T05:15:11.523Z,34.2
2018-08-16T05:16:13.689Z,34.4
2018-08-16T05:17:15.890Z,34.3
2018-08-16T05:18:18.187Z,34.3
2018-08-16T05:19:19.796Z,34.3
2018-08-16T05:20:22.012Z,34.3
2018-08-16T05:21:24.185Z,34.2
2018-08-16T05:22:26.376Z,34.2
2018-08-16T05:23:28.545Z,34.2
2018-08-16T05:24:30.996Z,34.1
2018-08-16T05:25:33.175Z,34.3
2018-08-16T05:26:35.623Z,34.2
2018-08-16T05:27:37.809Z,34.1
2018-08-16T05:28:39.996Z,34.1
2018-08-16T05:29:42.174Z,34.1
2018-08-16T05:30:44.053Z,34.2
2018-08-16T05:31:46.089Z,34.1
2018-08-16T05:32:48.677Z,34.2
2018-08-16T05:33:50.850Z,34.1
2018-08-16T05:34:53.307Z,34.2
2018-08-16T05:35:55.794Z,34.1
2018-08-16T05:36:58.225Z,34.3
2018-08-16T05:38:00.114Z,34.2
2018-08-16T05:39:02.288Z,34.2
2018-08-16T05:40:04.185Z,34.1
2018-08-16T05:41:06.361Z,34.1
2018-08-16T05:42:08.806Z,34.2
2018-08-16T05:43:11.554Z,34.2
2018-08-16T05:44:13.426Z,34.1
2018-08-16T05:45:15.880Z,34.1
2018-08-16T05:46:18.339Z,34.2
2018-08-16T05:47:19.988Z,34.2
2018-08-16T05:48:21.897Z,34.2
2018-08-16T05:49:24.039Z,34.2
2018-08-16T05:50:26.490Z,34.2
2018-08-16T05:51:28.946Z,34.1
2018-08-16T05:52:31.386Z,34.1
2018-08-16T05:53:33.566Z,34.1
2018-08-16T05:54:36.025Z,34.2
2018-08-16T05:55:38.207Z,34.2
2018-08-16T05:56:40.398Z,34.1
2018-08-16T05:57:42.575Z,34.1
2018-08-16T05:58:44.718Z,34.2
2018-08-16T05:59:46.878Z,34.2
2018-08-16T06:00:49.328Z,34.2
2018-08-16T06:01:51.535Z,34.2
2018-08-16T06:02:53.444Z,34.1
2018-08-16T06:03:55.887Z,34.2
2018-08-16T06:04:58.066Z,34.3
2018-08-16T06:05:59.941Z,34.2
2018-08-16T06:07:02.385Z,34.3
2018-08-16T06:08:04.587Z,34.3
2018-08-16T06:09:07.050Z,34.2
2018-08-16T06:10:08.959Z,34.1
2018-08-16T06:11:11.162Z,34.1
2018-08-16T06:12:13.389Z,34.1
2018-08-16T06:13:15.571Z,34.2
2018-08-16T06:14:17.747Z,34.3
2018-08-16T06:15:19.974Z,34.2
2018-08-16T06:16:21.964Z,34.1
2018-08-16T06:17:24.421Z,34.1
2018-08-16T06:18:25.763Z,34.2
2018-08-16T06:19:28.219Z,34.2
2018-08-16T06:20:30.394Z,34.2
2018-08-16T06:21:32.580Z,34.1
2018-08-16T06:22:34.755Z,34.1
2018-08-16T06:23:36.945Z,34.2
2018-08-16T06:24:39.446Z,34.2
2018-08-16T06:25:41.641Z,34.2
2018-08-16T06:26:44.089Z,34.2
2018-08-16T06:27:46.239Z,34.3
2018-08-16T06:28:48.420Z,34.1
2018-08-16T06:29:50.879Z,34.1
2018-08-16T06:30:53.322Z,34.2
2018-08-16T06:31:55.482Z,34.2
2018-08-16T06:32:57.359Z,34.2
2018-08-16T06:33:59.823Z,34.2
2018-08-16T06:35:01.759Z,34.2
2018-08-16T06:36:03.636Z,34.1
2018-08-16T06:37:06.075Z,34.1
2018-08-16T06:38:07.970Z,34.3
2018-08-16T06:39:10.157Z,34.1
2018-08-16T06:40:12.326Z,34.1
2018-08-16T06:41:14.769Z,34.2
2018-08-16T06:42:17.218Z,34.1
2018-08-16T06:43:19.396Z,34.1
2018-08-16T06:44:21.334Z,34.2
2018-08-16T06:45:23.519Z,34
2018-08-16T06:46:25.889Z,34.1
2018-08-16T06:47:28.425Z,34.1
2018-08-16T06:48:30.876Z,34.3
2018-08-16T06:49:33.066Z,34.2
2018-08-16T06:50:35.249Z,34.1
2018-08-16T06:51:37.710Z,34
2018-08-16T06:52:40.432Z,34.1
2018-08-16T06:53:42.666Z,34.2
2018-08-16T06:54:45.114Z,34.2
2018-08-16T06:55:47.288Z,34.1
2018-08-16T06:56:49.463Z,34.1
2018-08-16T06:57:51.656Z,34.2
2018-08-16T06:58:53.554Z,34.2
2018-08-16T06:59:56.008Z,34.2
2018-08-16T07:00:58.467Z,34.1
2018-08-16T07:02:00.381Z,34.1
2018-08-16T07:03:02.838Z,34.1
2018-08-16T07:04:04.994Z,34.1
2018-08-16T07:05:07.182Z,34.3
2018-08-16T07:06:09.631Z,34.2
2018-08-16T07:07:11.777Z,34
2018-08-16T07:08:13.954Z,34
2018-08-16T07:09:16.406Z,34.1
2018-08-16T07:10:18.857Z,34.1
2018-08-16T07:11:21.030Z,34.1
2018-08-16T07:12:23.214Z,34.1
2018-08-16T07:13:25.267Z,34.2
2018-08-16T07:14:27.440Z,34.1
2018-08-16T07:15:29.646Z,34.1
2018-08-16T07:16:31.824Z,34.1
2018-08-16T07:17:33.997Z,34.2
2018-08-16T07:18:35.655Z,34.2
2018-08-16T07:19:38.169Z,34.2
2018-08-16T07:20:40.362Z,34.1
2018-08-16T07:21:42.544Z,34.2
2018-08-16T07:22:44.992Z,34.1
2018-08-16T07:23:46.898Z,34.2
2018-08-16T07:24:49.176Z,34.1
2018-08-16T07:25:52.091Z,34.1
2018-08-16T07:26:54.266Z,34.1
2018-08-16T07:27:56.460Z,34.1
2018-08-16T07:28:58.068Z,34.2
2018-08-16T07:30:00.348Z,34.1
2018-08-16T07:31:03.345Z,34
2018-08-16T07:32:05.527Z,34.1
2018-08-16T07:33:07.431Z,34.2
2018-08-16T07:34:09.818Z,34.1
2018-08-16T07:35:11.990Z,34.2
2018-08-16T07:36:14.436Z,34.1
2018-08-16T07:37:16.603Z,34.1
2018-08-16T07:38:19.056Z,34.2
2018-08-16T07:39:21.225Z,34
2018-08-16T07:40:23.405Z,34.1
2018-08-16T07:41:25.583Z,34.1
2018-08-16T07:42:27.776Z,34.1
2018-08-16T07:43:30.225Z,34.1
2018-08-16T07:44:32.406Z,34.1
2018-08-16T07:45:34.356Z,34.2
2018-08-16T07:46:37.155Z,34.2
2018-08-16T07:47:39.329Z,34.2
2018-08-16T07:48:41.543Z,34
2018-08-16T07:49:44.290Z,34
2018-08-16T07:50:46.068Z,34.2
2018-08-16T07:51:48.395Z,34.1
2018-08-16T07:52:50.945Z,34
2018-08-16T07:53:53.406Z,34.2
2018-08-16T07:54:55.585Z,34.1
2018-08-16T07:55:57.740Z,34
2018-08-16T07:56:59.724Z,34.1
2018-08-16T07:58:02.502Z,34.1
2018-08-16T07:59:04.442Z,34
2018-08-16T08:00:06.605Z,34.1
2018-08-16T08:01:09.063Z,34.2
2018-08-16T08:02:11.227Z,34.2
2018-08-16T08:03:13.149Z,34.1
2018-08-16T08:04:15.326Z,34
2018-08-16T08:05:17.514Z,34.1
2018-08-16T08:06:19.956Z,34.1
2018-08-16T08:07:22.123Z,34
2018-08-16T08:08:24.318Z,34
2018-08-16T08:09:27.124Z,34.1
2018-08-16T08:10:30.552Z,34.2
2018-08-16T08:11:32.696Z,34.1
2018-08-16T08:12:34.603Z,34
2018-08-16T08:13:37.071Z,34.1
2018-08-16T08:14:39.511Z,34.2
2018-08-16T08:15:41.389Z,34.1
2018-08-16T08:16:43.569Z,34.2
2018-08-16T08:17:45.746Z,34.1
2018-08-16T08:18:47.942Z,34
2018-08-16T08:19:50.390Z,34.1
2018-08-16T08:20:52.837Z,34.1
2018-08-16T08:21:55.283Z,34.1
2018-08-16T08:22:57.742Z,34
2018-08-16T08:24:00.192Z,34
2018-08-16T08:25:02.693Z,34.2
2018-08-16T08:26:04.589Z,34
2018-08-16T08:27:06.729Z,34.1
2018-08-16T08:28:08.631Z,34
2018-08-16T08:29:10.802Z,34.1
2018-08-16T08:30:12.710Z,34.1
2018-08-16T08:31:15.175Z,34.1
2018-08-16T08:32:17.357Z,34
2018-08-16T08:33:19.256Z,34.1
2018-08-16T08:34:21.443Z,34.1
2018-08-16T08:35:23.627Z,34
2018-08-16T08:36:25.806Z,34.1
2018-08-16T08:37:28.272Z,34
2018-08-16T08:38:30.552Z,34
2018-08-16T08:39:32.972Z,34.1
2018-08-16T08:40:35.426Z,34.1
2018-08-16T08:41:37.598Z,34
2018-08-16T08:42:40.050Z,34
2018-08-16T08:43:41.933Z,34
2018-08-16T08:44:44.387Z,34
2018-08-16T08:45:46.859Z,34.1
2018-08-16T08:46:49.053Z,34
2018-08-16T08:47:51.487Z,34
2018-08-16T08:48:53.651Z,34.1
2018-08-16T08:49:55.829Z,34.1
2018-08-16T08:50:57.431Z,34
2018-08-16T08:51:59.911Z,34.2
2018-08-16T08:53:01.234Z,34.1
2018-08-16T08:54:03.682Z,34.1
2018-08-16T08:55:05.846Z,33.9
2018-08-16T08:56:08.027Z,34.1
2018-08-16T08:57:10.475Z,34.2
2018-08-16T08:58:12.647Z,34.1
2018-08-16T08:59:14.878Z,34.1
2018-08-16T09:00:17.175Z,34.1
2018-08-16T09:01:19.327Z,34.2
2018-08-16T09:02:21.513Z,34.2
2018-08-16T09:03:23.968Z,34.1
2018-08-16T09:04:26.107Z,34
2018-08-16T09:05:27.470Z,34.2
2018-08-16T09:06:29.648Z,34.1
2018-08-16T09:07:32.098Z,34.2
2018-08-16T09:08:33.973Z,34.2
2018-08-16T09:09:36.150Z,34.3
2018-08-16T09:10:38.605Z,34.2
2018-08-16T09:11:40.788Z,34.2
2018-08-16T09:12:43.255Z,34.1
2018-08-16T09:13:45.547Z,34.2
2018-08-16T09:14:48.083Z,34.1
2018-08-16T09:15:50.361Z,34.1
2018-08-16T09:16:52.813Z,34.2
2018-08-16T09:17:55.277Z,34.2
2018-08-16T09:18:57.171Z,34.3
2018-08-16T09:19:59.620Z,34.2
2018-08-16T09:21:02.064Z,34.2
2018-08-16T09:22:03.946Z,34.2
2018-08-16T09:23:06.386Z,34.1
2018-08-16T09:24:09.003Z,34.1
2018-08-16T09:25:11.416Z,34.2
2018-08-16T09:26:13.604Z,34.2
2018-08-16T09:27:15.511Z,34
2018-08-16T09:28:17.703Z,34
2018-08-16T09:29:20.157Z,34.2
2018-08-16T09:30:22.350Z,34.1
2018-08-16T09:31:24.534Z,34.2
2018-08-16T09:32:26.806Z,34
2018-08-16T09:33:28.989Z,34.1
2018-08-16T09:34:31.174Z,34.1
2018-08-16T09:35:33.608Z,34.2
2018-08-16T09:36:35.504Z,34.2
2018-08-16T09:37:37.960Z,34.2
2018-08-16T09:38:40.133Z,34.1
2018-08-16T09:39:42.155Z,34.2
2018-08-16T09:40:44.856Z,34.1
2018-08-16T09:41:47.024Z,34.2
2018-08-16T09:42:48.910Z,34
2018-08-16T09:43:51.089Z,34.2
2018-08-16T09:44:53.272Z,34
2018-08-16T09:45:55.480Z,34.2
2018-08-16T09:46:57.396Z,34.1
2018-08-16T09:47:59.569Z,34.1
2018-08-16T09:49:02.010Z,34.1
2018-08-16T09:50:04.192Z,34.1
2018-08-16T09:51:06.642Z,34.1
2018-08-16T09:52:08.830Z,34.1
2018-08-16T09:53:11.268Z,34.2
2018-08-16T09:54:13.168Z,34.2
2018-08-16T09:55:15.357Z,34.2
2018-08-16T09:56:17.610Z,34.1
2018-08-16T09:57:19.804Z,34.3
2018-08-16T09:58:21.990Z,34.1
2018-08-16T09:59:23.903Z,34.1
2018-08-16T10:00:26.078Z,34
2018-08-16T10:01:28.526Z,34.2
2018-08-16T10:02:30.974Z,34
2018-08-16T10:03:33.153Z,34.2
2018-08-16T10:04:35.608Z,34.2
2018-08-16T10:05:38.056Z,34.1
2018-08-16T10:06:40.232Z,34.2
2018-08-16T10:07:42.690Z,34.1
2018-08-16T10:08:44.848Z,34.3
2018-08-16T10:09:46.742Z,34.2
2018-08-16T10:10:48.369Z,34.2
2018-08-16T10:11:49.976Z,34.3
2018-08-16T10:12:51.878Z,34
2018-08-16T10:13:53.507Z,34.1
2018-08-16T10:14:55.721Z,34.2
2018-08-16T10:15:57.910Z,34.3
2018-08-16T10:17:00.347Z,34.2
2018-08-16T10:18:02.521Z,34.3
2018-08-16T10:19:04.701Z,34.3
2018-08-16T10:20:06.895Z,34.2
2018-08-16T10:21:09.072Z,34.1
2018-08-16T10:22:11.251Z,34.1
2018-08-16T10:23:13.117Z,34.2
2018-08-16T10:24:15.288Z,34.2
2018-08-16T10:25:17.472Z,34.2
2018-08-16T10:26:19.390Z,34.1
2018-08-16T10:27:21.848Z,34.2
2018-08-16T10:28:24.023Z,34.2
2018-08-16T10:29:26.471Z,34.2
2018-08-16T10:30:28.919Z,34
2018-08-16T10:31:31.077Z,34.1
2018-08-16T10:32:32.999Z,34.1
2018-08-16T10:33:34.901Z,34.1
2018-08-16T10:34:37.067Z,34
2018-08-16T10:35:38.988Z,34.2
2018-08-16T10:36:40.871Z,34.3
2018-08-16T10:37:42.768Z,34.1
2018-08-16T10:38:45.008Z,34.2
2018-08-16T10:39:47.164Z,34
2018-08-16T10:40:49.364Z,34
2018-08-16T10:41:51.550Z,34.1
2018-08-16T10:42:53.998Z,34.2
2018-08-16T10:43:56.172Z,34.2
2018-08-16T10:44:58.338Z,34.3
2018-08-16T10:46:00.794Z,34.2
2018-08-16T10:47:02.972Z,34
2018-08-16T10:48:05.159Z,34.1
2018-08-16T10:49:07.605Z,34.1
2018-08-16T10:50:10.064Z,34.1
2018-08-16T10:51:12.525Z,34.1
2018-08-16T10:52:14.426Z,34.2
2018-08-16T10:53:16.879Z,34.1
2018-08-16T10:54:19.320Z,34.1
2018-08-16T10:55:21.515Z,34.2
2018-08-16T10:56:23.955Z,34.1
2018-08-16T10:57:26.126Z,34.1
2018-08-16T10:58:28.599Z,34.2
2018-08-16T10:59:30.240Z,34
2018-08-16T11:00:32.424Z,34.2
2018-08-16T11:01:34.366Z,34.1
2018-08-16T11:02:36.537Z,34.1
2018-08-16T11:03:38.742Z,34.2
2018-08-16T11:04:40.914Z,34.1
2018-08-16T11:05:43.367Z,34.3
2018-08-16T11:06:45.818Z,34.1
2018-08-16T11:07:47.712Z,34.1
2018-08-16T11:08:50.179Z,34.1
2018-08-16T11:09:52.372Z,34.2
2018-08-16T11:10:54.819Z,34.1
2018-08-16T11:11:56.957Z,34.2
2018-08-16T11:12:58.866Z,34.1
2018-08-16T11:14:01.316Z,34
2018-08-16T11:15:03.767Z,34.3
2018-08-16T11:16:05.640Z,34.1
2018-08-16T11:17:07.827Z,34.2
2018-08-16T11:18:10.278Z,34.3
2018-08-16T11:19:12.444Z,34.3
2018-08-16T11:20:14.587Z,34.2
2018-08-16T11:21:17.038Z,34.3
2018-08-16T11:22:19.196Z,34.2
2018-08-16T11:23:21.095Z,34.2
2018-08-16T11:24:22.733Z,34.3
2018-08-16T11:25:24.928Z,34.3
2018-08-16T11:26:27.113Z,34.2
2018-08-16T11:27:29.270Z,34.2
2018-08-16T11:28:31.429Z,34.3
2018-08-16T11:29:33.353Z,34.3
2018-08-16T11:30:35.544Z,34.3
2018-08-16T11:31:37.447Z,34.3
2018-08-16T11:32:39.911Z,34.3
2018-08-16T11:33:42.098Z,34.3
2018-08-16T11:34:43.989Z,34.3
2018-08-16T11:35:46.193Z,34.3
2018-08-16T11:36:48.389Z,34.1
2018-08-16T11:37:50.968Z,34.3
2018-08-16T11:38:53.337Z,34.3
2018-08-16T11:39:55.518Z,34.3
2018-08-16T11:40:57.443Z,34.3
2018-08-16T11:41:59.892Z,34.3
2018-08-16T11:43:02.347Z,34.3
2018-08-16T11:44:04.499Z,34.3
2018-08-16T11:45:06.710Z,34.1
2018-08-16T11:46:08.893Z,34.3
2018-08-16T11:47:11.072Z,34.3
2018-08-16T11:48:13.518Z,34.3
2018-08-16T11:49:15.411Z,34.2
2018-08-16T11:50:17.587Z,34.4
2018-08-16T11:51:19.757Z,34.3
2018-08-16T11:52:21.930Z,34.4
2018-08-16T11:53:23.813Z,34.4
2018-08-16T11:54:26.259Z,34.2
2018-08-16T11:55:28.709Z,34.3
2018-08-16T11:56:30.899Z,34.3
2018-08-16T11:57:33.071Z,34.4
2018-08-16T11:58:35.578Z,34.3
2018-08-16T11:59:38.511Z,34.3
2018-08-16T12:00:41.069Z,34.4
2018-08-16T12:01:43.305Z,34.5
2018-08-16T12:02:45.809Z,34.3
2018-08-16T12:03:47.979Z,34.4
2018-08-16T12:04:49.901Z,34.3
2018-08-16T12:05:52.085Z,34.3
2018-08-16T12:06:53.967Z,34.4
2018-08-16T12:07:56.427Z,34.3
2018-08-16T12:08:58.871Z,34.3
2018-08-16T12:10:01.009Z,34.4
2018-08-16T12:11:03.154Z,34.4
2018-08-16T12:12:05.597Z,34.3
2018-08-16T12:13:08.055Z,34.4
2018-08-16T12:14:10.519Z,34.3
2018-08-16T12:15:12.469Z,34.4
2018-08-16T12:16:14.277Z,34.3
2018-08-16T12:17:16.224Z,34.4
2018-08-16T12:18:18.688Z,34.4
2018-08-16T12:19:20.883Z,34.2
2018-08-16T12:20:23.052Z,34.2
2018-08-16T12:21:25.500Z,34.4
2018-08-16T12:22:27.937Z,34.2
2018-08-16T12:23:30.401Z,34.2
2018-08-16T12:24:32.852Z,34.2
2018-08-16T12:25:34.785Z,34.4
2018-08-16T12:26:37.248Z,34.3
2018-08-16T12:27:39.733Z,34.4
2018-08-16T12:28:41.910Z,34.3
2018-08-16T12:29:44.110Z,34.2
2018-08-16T12:30:46.016Z,34.4
2018-08-16T12:31:48.194Z,34.3
2018-08-16T12:32:50.357Z,34.3
2018-08-16T12:33:52.815Z,34.3
2018-08-16T12:34:55.314Z,34.3
2018-08-16T12:35:57.299Z,34.2
2018-08-16T12:36:59.476Z,34.4
2018-08-16T12:38:01.663Z,34.3
2018-08-16T12:39:03.833Z,34.4
2018-08-16T12:40:06.280Z,34.4
2018-08-16T12:41:08.731Z,34.2
2018-08-16T12:42:11.908Z,34.3
2018-08-16T12:43:14.393Z,34.3
2018-08-16T12:44:16.588Z,34.2
2018-08-16T12:45:19.095Z,34.4
2018-08-16T12:46:21.230Z,34.3
2018-08-16T12:47:23.934Z,34.3
2018-08-16T12:48:26.426Z,34.3
2018-08-16T12:49:28.877Z,34.4
2018-08-16T12:50:31.059Z,34.4
2018-08-16T12:51:33.248Z,34.2
2018-08-16T12:52:35.125Z,34.3
2018-08-16T12:53:37.040Z,34.3
2018-08-16T12:54:39.958Z,34.3
2018-08-16T12:55:42.415Z,34.4
2018-08-16T12:56:44.612Z,34.3
2018-08-16T12:57:46.805Z,34.3
2018-08-16T12:58:49.018Z,34.3
2018-08-16T12:59:51.475Z,34.3
2018-08-16T13:00:53.646Z,34.3
2018-08-16T13:01:55.729Z,34.3
2018-08-16T13:02:57.936Z,34.3
2018-08-16T13:04:00.124Z,34.4
2018-08-16T13:05:02.580Z,34.2
2018-08-16T13:06:05.026Z,34.5
2018-08-16T13:07:06.667Z,34.4
2018-08-16T13:08:09.136Z,34.4
2018-08-16T13:09:11.590Z,34.3
2018-08-16T13:10:14.041Z,34.2
2018-08-16T13:11:16.485Z,34.3
2018-08-16T13:12:18.938Z,34.3
2018-08-16T13:13:21.381Z,34.4
2018-08-16T13:14:23.817Z,34.3
2018-08-16T13:15:26.275Z,34.3
2018-08-16T13:16:28.154Z,34.3
2018-08-16T13:17:30.338Z,34.3
2018-08-16T13:18:32.522Z,34.3
2018-08-16T13:19:34.438Z,34.3
2018-08-16T13:20:36.611Z,34.4
2018-08-16T13:21:38.539Z,34.4
2018-08-16T13:22:40.458Z,34.3
2018-08-16T13:23:43.153Z,34.4
2018-08-16T13:24:46.269Z,34.5
2018-08-16T13:25:47.886Z,34.3
2018-08-16T13:26:49.996Z,34.5
2018-08-16T13:27:51.994Z,34.5
2018-08-16T13:28:54.177Z,34.3
2018-08-16T13:29:56.679Z,34.5
2018-08-16T13:30:58.597Z,34.3
2018-08-16T13:32:01.049Z,34.4
2018-08-16T13:33:03.217Z,34.5
2018-08-16T13:34:05.391Z,34.4
2018-08-16T13:35:07.843Z,34.4
2018-08-16T13:36:09.721Z,34.4
2018-08-16T13:37:12.343Z,34.4
2018-08-16T13:38:14.582Z,34.4
2018-08-16T13:39:17.048Z,34.3
2018-08-16T13:40:19.507Z,34.3
2018-08-16T13:41:22.003Z,34.5
2018-08-16T13:42:24.580Z,34.4
2018-08-16T13:43:27.381Z,34.5
2018-08-16T13:44:29.589Z,34.5
2018-08-16T13:45:32.069Z,34.3
2018-08-16T13:46:34.565Z,34.5
2018-08-16T13:47:36.560Z,34.5
2018-08-16T13:48:39.118Z,34.4
2018-08-16T13:49:41.406Z,34.4
2018-08-16T13:50:43.561Z,34.4
2018-08-16T13:51:45.747Z,34.4
2018-08-16T13:52:47.112Z,34.4